WJA681 CYQR-CYVR
Flight info
| Callsign | WJA681 |
|---|---|
| Flight time | N/A |
| Altitude | 36000 |
| Route | ODGOV DCT AXILI DCT BOOTH CANUC6 |
| Aircraft | B738/M-SDE2E3FGHIRWXY/LB1 |
Departure
| Time | N/A |
|---|---|
| Airport | Regina International Airport (CYQR) |
Arrival
| Time | 2026-05-03 20:45 |
|---|---|
| Airport | Vancouver International Airport (CYVR) |
| Time | Latitude | Longitude | Altitude | Speed | Heading |
|---|---|---|---|---|---|
| 2026-05-03 20:15 | 49.76862 | -118.90227 | 38034 ft | 437 kts | 269° |
| 2026-05-03 20:15 | 49.76257 | -118.99552 | 38028 ft | 439 kts | 269° |
| 2026-05-03 20:16 | 49.75636 | -119.08974 | 38038 ft | 441 kts | 269° |
| 2026-05-03 20:16 | 49.75005 | -119.18446 | 38038 ft | 443 kts | 269° |
| 2026-05-03 20:17 | 49.74363 | -119.27957 | 38014 ft | 445 kts | 269° |
| 2026-05-03 20:17 | 49.73714 | -119.37449 | 38021 ft | 447 kts | 269° |
| 2026-05-03 20:18 | 49.73052 | -119.47028 | 38016 ft | 448 kts | 268° |
| 2026-05-03 20:18 | 49.72380 | -119.56616 | 38006 ft | 449 kts | 268° |
| 2026-05-03 20:19 | 49.71697 | -119.66271 | 37408 ft | 455 kts | 268° |
| 2026-05-03 20:19 | 49.71350 | -119.71119 | 36869 ft | 452 kts | 268° |
| 2026-05-03 20:19 | 49.71002 | -119.75934 | 36367 ft | 450 kts | 268° |
| 2026-05-03 20:19 | 49.70657 | -119.80691 | 35832 ft | 450 kts | 268° |
| 2026-05-03 20:20 | 49.70307 | -119.85501 | 35264 ft | 452 kts | 268° |
| 2026-05-03 20:20 | 49.69954 | -119.90338 | 34666 ft | 453 kts | 268° |
| 2026-05-03 20:20 | 49.69599 | -119.95178 | 34088 ft | 455 kts | 268° |
| 2026-05-03 20:20 | 49.69238 | -120.00045 | 33415 ft | 456 kts | 268° |
| 2026-05-03 20:21 | 49.68875 | -120.04923 | 32751 ft | 457 kts | 267° |
| 2026-05-03 20:21 | 49.68509 | -120.09811 | 32100 ft | 458 kts | 267° |
| 2026-05-03 20:21 | 49.68141 | -120.14685 | 31629 ft | 455 kts | 267° |
| 2026-05-03 20:21 | 49.67774 | -120.19510 | 31160 ft | 451 kts | 266° |
| 2026-05-03 20:22 | 49.67407 | -120.24307 | 30713 ft | 448 kts | 266° |
| 2026-05-03 20:22 | 49.67040 | -120.29079 | 30263 ft | 445 kts | 266° |
| 2026-05-03 20:22 | 49.66680 | -120.33755 | 29788 ft | 442 kts | 266° |
| 2026-05-03 20:22 | 49.66317 | -120.38440 | 29302 ft | 438 kts | 266° |
| 2026-05-03 20:23 | 49.65955 | -120.43088 | 28841 ft | 433 kts | 266° |
| 2026-05-03 20:23 | 49.65594 | -120.47712 | 27984 ft | 437 kts | 266° |
| 2026-05-03 20:23 | 49.65227 | -120.52407 | 27076 ft | 443 kts | 266° |
| 2026-05-03 20:23 | 49.64855 | -120.57130 | 26445 ft | 442 kts | 265° |
| 2026-05-03 20:24 | 49.64483 | -120.61804 | 26116 ft | 436 kts | 265° |
| 2026-05-03 20:24 | 49.64111 | -120.66472 | 26085 ft | 439 kts | 265° |
| 2026-05-03 20:24 | 49.63733 | -120.71163 | 26044 ft | 441 kts | 265° |
| 2026-05-03 20:24 | 49.63358 | -120.75791 | 26033 ft | 438 kts | 265° |
| 2026-05-03 20:25 | 49.62980 | -120.80453 | 26038 ft | 439 kts | 265° |
| 2026-05-03 20:25 | 49.62598 | -120.85125 | 26034 ft | 439 kts | 265° |
| 2026-05-03 20:25 | 49.62211 | -120.89844 | 26029 ft | 438 kts | 265° |
| 2026-05-03 20:25 | 49.61832 | -120.94438 | 26015 ft | 437 kts | 265° |
| 2026-05-03 20:26 | 49.61448 | -120.99082 | 26023 ft | 436 kts | 265° |
| 2026-05-03 20:26 | 49.61061 | -121.03729 | 26030 ft | 436 kts | 265° |
| 2026-05-03 20:26 | 49.60673 | -121.08361 | 26037 ft | 436 kts | 265° |
| 2026-05-03 20:26 | 49.60282 | -121.13011 | 26006 ft | 436 kts | 265° |
| 2026-05-03 20:27 | 49.59893 | -121.17615 | 25587 ft | 431 kts | 265° |
| 2026-05-03 20:27 | 49.59504 | -121.22185 | 25074 ft | 429 kts | 265° |
| 2026-05-03 20:27 | 49.59114 | -121.26743 | 24481 ft | 428 kts | 264° |
| 2026-05-03 20:27 | 49.58725 | -121.31291 | 23936 ft | 427 kts | 264° |
| 2026-05-03 20:28 | 49.58340 | -121.35764 | 23367 ft | 423 kts | 264° |
| 2026-05-03 20:28 | 49.57960 | -121.40241 | 22776 ft | 421 kts | 264° |
| 2026-05-03 20:28 | 49.57575 | -121.44687 | 22303 ft | 415 kts | 264° |
| 2026-05-03 20:28 | 49.57192 | -121.49058 | 21843 ft | 411 kts | 264° |
| 2026-05-03 20:29 | 49.56806 | -121.53412 | 21298 ft | 409 kts | 264° |
| 2026-05-03 20:29 | 49.56422 | -121.57745 | 20814 ft | 406 kts | 264° |
| 2026-05-03 20:29 | 49.56040 | -121.62041 | 20353 ft | 402 kts | 264° |
| 2026-05-03 20:29 | 49.55661 | -121.66304 | 19845 ft | 400 kts | 264° |
| 2026-05-03 20:30 | 49.55285 | -121.70499 | 19281 ft | 392 kts | 264° |
| 2026-05-03 20:30 | 49.54912 | -121.74647 | 18528 ft | 391 kts | 264° |
| 2026-05-03 20:30 | 49.54542 | -121.78786 | 17714 ft | 387 kts | 264° |
| 2026-05-03 20:30 | 49.54181 | -121.82810 | 16993 ft | 382 kts | 264° |
| 2026-05-03 20:31 | 49.53815 | -121.86848 | 16273 ft | 378 kts | 263° |
| 2026-05-03 20:31 | 49.53453 | -121.90844 | 15593 ft | 374 kts | 263° |
| 2026-05-03 20:31 | 49.53094 | -121.94744 | 15403 ft | 357 kts | 263° |
| 2026-05-03 20:31 | 49.52758 | -121.98447 | 15231 ft | 342 kts | 263° |
| 2026-05-03 20:32 | 49.52428 | -122.02051 | 14743 ft | 337 kts | 263° |
| 2026-05-03 20:32 | 49.51854 | -122.05501 | 14110 ft | 340 kts | 244° |
| 2026-05-03 20:32 | 49.50629 | -122.08593 | 13611 ft | 337 kts | 237° |
| 2026-05-03 20:32 | 49.49349 | -122.11616 | 12996 ft | 336 kts | 239° |
| 2026-05-03 20:33 | 49.48131 | -122.14671 | 12432 ft | 334 kts | 239° |
| 2026-05-03 20:33 | 49.46930 | -122.17702 | 11964 ft | 330 kts | 239° |
| 2026-05-03 20:33 | 49.45780 | -122.20683 | 11788 ft | 316 kts | 239° |
| 2026-05-03 20:33 | 49.44646 | -122.23517 | 11550 ft | 308 kts | 239° |
| 2026-05-03 20:34 | 49.43528 | -122.26316 | 11303 ft | 305 kts | 239° |
| 2026-05-03 20:34 | 49.42421 | -122.29096 | 10986 ft | 305 kts | 239° |
| 2026-05-03 20:34 | 49.41320 | -122.31861 | 10752 ft | 302 kts | 239° |
| 2026-05-03 20:34 | 49.40220 | -122.34606 | 10386 ft | 302 kts | 238° |
| 2026-05-03 20:35 | 49.38939 | -122.37161 | 10143 ft | 302 kts | 227° |
| 2026-05-03 20:35 | 49.37513 | -122.39439 | 9881 ft | 299 kts | 229° |
| 2026-05-03 20:35 | 49.36151 | -122.41863 | 9482 ft | 301 kts | 230° |
| 2026-05-03 20:35 | 49.34774 | -122.44245 | 9278 ft | 296 kts | 228° |
| 2026-05-03 20:36 | 49.33375 | -122.46561 | 8913 ft | 296 kts | 227° |
| 2026-05-03 20:36 | 49.31988 | -122.48878 | 8524 ft | 292 kts | 228° |
| 2026-05-03 20:36 | 49.30618 | -122.51193 | 7999 ft | 293 kts | 228° |
| 2026-05-03 20:36 | 49.29273 | -122.53478 | 7594 ft | 291 kts | 228° |
| 2026-05-03 20:37 | 49.27930 | -122.55764 | 7244 ft | 287 kts | 229° |
| 2026-05-03 20:37 | 49.26599 | -122.58036 | 6828 ft | 285 kts | 228° |
| 2026-05-03 20:37 | 49.25282 | -122.60285 | 6488 ft | 281 kts | 228° |
| 2026-05-03 20:37 | 49.23975 | -122.62517 | 6032 ft | 281 kts | 228° |
| 2026-05-03 20:38 | 49.22678 | -122.64724 | 5792 ft | 273 kts | 228° |
| 2026-05-03 20:38 | 49.21437 | -122.66833 | 5687 ft | 261 kts | 228° |
| 2026-05-03 20:38 | 49.20311 | -122.68922 | 5578 ft | 248 kts | 237° |
| 2026-05-03 20:38 | 49.19430 | -122.71113 | 5347 ft | 243 kts | 239° |
| 2026-05-03 20:39 | 49.18568 | -122.73333 | 5014 ft | 242 kts | 239° |
| 2026-05-03 20:39 | 49.17700 | -122.75527 | 4723 ft | 240 kts | 238° |
| 2026-05-03 20:39 | 49.16826 | -122.77707 | 4474 ft | 240 kts | 238° |
| 2026-05-03 20:39 | 49.16105 | -122.79977 | 4235 ft | 238 kts | 261° |
| 2026-05-03 20:40 | 49.16257 | -122.82406 | 4205 ft | 224 kts | 285° |
| 2026-05-03 20:40 | 49.16583 | -122.84696 | 3981 ft | 219 kts | 279° |
| 2026-05-03 20:40 | 49.16824 | -122.86955 | 3708 ft | 211 kts | 279° |
| 2026-05-03 20:40 | 49.17055 | -122.89119 | 3448 ft | 201 kts | 279° |
| 2026-05-03 20:41 | 49.17282 | -122.91195 | 3210 ft | 197 kts | 279° |
| 2026-05-03 20:41 | 49.17509 | -122.93245 | 2948 ft | 194 kts | 279° |
| 2026-05-03 20:41 | 49.17730 | -122.95235 | 2708 ft | 184 kts | 280° |
| 2026-05-03 20:41 | 49.17936 | -122.97093 | 2477 ft | 177 kts | 280° |
| 2026-05-03 20:42 | 49.18137 | -122.98904 | 2233 ft | 168 kts | 279° |
| 2026-05-03 20:42 | 49.18331 | -123.00642 | 2025 ft | 166 kts | 279° |
| 2026-05-03 20:42 | 49.18525 | -123.02382 | 1815 ft | 165 kts | 279° |
| 2026-05-03 20:42 | 49.18718 | -123.04107 | 1601 ft | 164 kts | 278° |
| 2026-05-03 20:43 | 49.18903 | -123.05753 | 1416 ft | 150 kts | 279° |
| 2026-05-03 20:43 | 49.19074 | -123.07288 | 1184 ft | 147 kts | 279° |
| 2026-05-03 20:43 | 49.19245 | -123.08798 | 1011 ft | 145 kts | 279° |
| 2026-05-03 20:43 | 49.19416 | -123.10332 | 786 ft | 143 kts | 279° |
| 2026-05-03 20:44 | 49.19579 | -123.11786 | 603 ft | 137 kts | 280° |
| 2026-05-03 20:44 | 49.19733 | -123.13228 | 371 ft | 142 kts | 279° |
| 2026-05-03 20:44 | 49.19902 | -123.14746 | 293 ft | 139 kts | 282° |
| 2026-05-03 20:44 | 49.20067 | -123.16147 | 58 ft | 132 kts | 279° |
| 2026-05-03 20:45 | 49.20214 | -123.17417 | 20 ft | 89 kts | 280° |
| 2026-05-03 20:45 | 49.20276 | -123.17960 | 20 ft | 73 kts | 280° |
| 2026-05-03 20:45 | 49.20316 | -123.18444 | 25 ft | 29 kts | 257° |
| 2026-05-03 20:45 | 49.20271 | -123.18606 | 26 ft | 11 kts | 246° |
| 2026-05-03 20:46 | 49.20243 | -123.18712 | 25 ft | 11 kts | 249° |
| 2026-05-03 20:46 | 49.20218 | -123.18817 | 22 ft | 10 kts | 250° |
| 2026-05-03 20:46 | 49.20194 | -123.18919 | 22 ft | 10 kts | 249° |
| 2026-05-03 20:46 | 49.20153 | -123.19011 | 24 ft | 11 kts | 213° |
| 2026-05-03 20:47 | 49.20081 | -123.19041 | 23 ft | 11 kts | 190° |
| 2026-05-03 20:47 | 49.20009 | -123.19062 | 22 ft | 10 kts | 191° |
| 2026-05-03 20:47 | 49.19939 | -123.19080 | 22 ft | 10 kts | 190° |
| 2026-05-03 20:47 | 49.19872 | -123.19096 | 22 ft | 10 kts | 188° |
| 2026-05-03 20:48 | 49.19806 | -123.19112 | 22 ft | 10 kts | 189° |
| 2026-05-03 20:48 | 49.19740 | -123.19129 | 22 ft | 10 kts | 189° |
| 2026-05-03 20:48 | 49.19660 | -123.19150 | 23 ft | 12 kts | 190° |
| 2026-05-03 20:48 | 49.19577 | -123.19165 | 24 ft | 12 kts | 173° |
| 2026-05-03 20:49 | 49.19507 | -123.19104 | 23 ft | 12 kts | 142° |
| 2026-05-03 20:49 | 49.19445 | -123.19031 | 23 ft | 11 kts | 141° |
| 2026-05-03 20:49 | 49.19385 | -123.18958 | 23 ft | 11 kts | 141° |
| 2026-05-03 20:49 | 49.19326 | -123.18888 | 22 ft | 11 kts | 142° |
| 2026-05-03 20:50 | 49.19267 | -123.18821 | 23 ft | 10 kts | 143° |
| 2026-05-03 20:50 | 49.19211 | -123.18758 | 23 ft | 10 kts | 143° |
| 2026-05-03 20:50 | 49.19156 | -123.18693 | 23 ft | 10 kts | 137° |
| 2026-05-03 20:50 | 49.19147 | -123.18601 | 22 ft | 10 kts | 64° |
| 2026-05-03 20:51 | 49.19147 | -123.18510 | 23 ft | 9 kts | 135° |
| 2026-05-03 20:51 | 49.19103 | -123.18443 | 23 ft | 9 kts | 107° |
| 2026-05-03 20:51 | 49.19110 | -123.18367 | 24 ft | 6 kts | 70° |
| 2026-05-03 20:51 | 49.19124 | -123.18312 | 22 ft | 5 kts | 56° |
| 2026-05-03 20:52 | 49.19158 | -123.18291 | 24 ft | 5 kts | 11° |
| 2026-05-03 20:52 | 49.19184 | -123.18284 | 24 ft | 3 kts | 9° |
| 2026-05-03 20:52 | 49.19195 | -123.18281 | 22 ft | 0 kts | 10° |